Time;durP1;ratioP1;P1;durP2;ratioP2;P2;SDS_P1;SDS_P2;PMS_P1;PMS_P2;Temp;Humidity;BMP_temperature;BMP_pressure;BME280_temperature;BME280_humidity;BME280_pressure;Samples;Min_cycle;Max_cycle;Signal;HPM_P1;HPM_P2
2024/02/04 00:01:21;;;;;;;;;;;8.80;99.90;;;;;;5013529;28;20572;-77
2024/02/04 00:03:49;;;;;;;;;;;8.80;99.90;;;;;;5050827;28;19916;-77
2024/02/04 00:06:15;;;;;;;;;;;8.80;99.90;;;;;;5017049;28;20019;-76
2024/02/04 00:08:40;;;;;;;;;;;8.80;99.90;;;;;;5043361;28;20008;-77
2024/02/04 00:11:11;;;;;;;;;;;8.80;99.90;;;;;;5036680;28;19912;-77
2024/02/04 00:13:39;;;;;;;;;;;8.70;99.90;;;;;;5035975;28;19913;-77
2024/02/04 00:16:05;;;;;;;;;;;8.70;99.90;;;;;;5034265;28;20640;-76
2024/02/04 00:18:33;;;;;;;;;;;8.70;99.90;;;;;;5017956;28;19914;-76
2024/02/04 00:20:59;;;;;;;;;;;8.70;99.90;;;;;;5033908;28;19924;-76
2024/02/04 00:23:24;;;;;;;;;;;8.70;99.90;;;;;;5017955;28;19913;-77
2024/02/04 00:25:50;;;;;;;;;;;8.70;99.90;;;;;;5034235;28;19928;-77
2024/02/04 00:28:18;;;;;;;;;;;8.60;99.90;;;;;;5010012;28;22177;-76
2024/02/04 00:30:49;;;;;;;;;;;8.70;99.90;;;;;;5036815;28;19913;-77
2024/02/04 00:33:15;;;;;;;;;;;8.60;99.90;;;;;;5034405;28;19913;-77
2024/02/04 00:35:41;;;;;;;;;;;8.60;99.90;;;;;;5028378;28;20004;-77
2024/02/04 00:38:08;;;;;;;;;;;8.60;99.90;;;;;;5043635;28;19927;-77
2024/02/04 00:40:37;;;;;;;;;;;8.60;99.90;;;;;;5037077;28;19992;-77
2024/02/04 00:43:02;;;;;;;;;;;8.50;99.90;;;;;;5053340;28;20254;-77
2024/02/04 00:45:28;;;;;;;;;;;8.50;99.90;;;;;;5035023;28;19943;-77
2024/02/04 00:47:54;;;;;;;;;;;8.60;99.90;;;;;;5017367;28;19975;-77
2024/02/04 00:50:20;;;;;;;;;;;8.50;99.90;;;;;;5016730;28;19924;-77
2024/02/04 00:52:45;;;;;;;;;;;8.50;99.90;;;;;;5049778;28;19960;-76
2024/02/04 00:55:11;;;;;;;;;;;8.50;99.90;;;;;;5027927;28;19986;-77
2024/02/04 00:57:41;;;;;;;;;;;8.50;99.90;;;;;;5014600;28;19921;-78
2024/02/04 01:00:07;;;;;;;;;;;8.50;99.90;;;;;;5010520;28;19929;-77
2024/02/04 01:02:35;;;;;;;;;;;8.40;99.90;;;;;;5012387;28;19987;-77
2024/02/04 01:05:01;;;;;;;;;;;8.40;99.90;;;;;;5026602;28;19916;-78
2024/02/04 01:07:29;;;;;;;;;;;8.40;99.90;;;;;;5027088;28;19917;-77
2024/02/04 01:09:55;;;;;;;;;;;8.40;99.90;;;;;;5011495;28;20309;-77
2024/02/04 01:12:23;;;;;;;;;;;8.30;99.90;;;;;;5029348;28;20068;-77
2024/02/04 01:14:49;;;;;;;;;;;8.30;99.90;;;;;;5032094;28;20014;-77
2024/02/04 01:17:15;;;;;;;;;;;8.30;99.90;;;;;;5032322;28;20401;-76
2024/02/04 01:19:40;;;;;;;;;;;8.40;99.90;;;;;;5010775;28;20060;-77
2024/02/04 01:22:06;;;;;;;;;;;8.30;99.90;;;;;;5012569;28;19922;-76
2024/02/04 01:24:49;;;;;;;;;;;8.40;99.90;;;;;;5031775;28;19921;-77
2024/02/04 01:27:35;;;;;;;;;;;8.30;99.90;;;;;;5030558;28;19921;-80
2024/02/04 01:30:02;;;;;;;;;;;8.30;99.90;;;;;;5049534;28;19925;-79
2024/02/04 01:32:32;;;;;;;;;;;8.40;99.90;;;;;;5022080;28;19944;-79
2024/02/04 01:34:58;;;;;;;;;;;8.40;99.90;;;;;;5051809;28;19913;-79
2024/02/04 01:37:24;;;;;;;;;;;8.40;99.90;;;;;;5013205;28;19970;-80
2024/02/04 01:39:49;;;;;;;;;;;8.40;99.90;;;;;;5033251;28;19917;-80
2024/02/04 01:42:15;;;;;;;;;;;8.40;99.90;;;;;;5016993;28;19984;-80
2024/02/04 01:44:41;;;;;;;;;;;8.30;99.90;;;;;;5014887;28;20382;-79
2024/02/04 01:47:09;;;;;;;;;;;8.30;99.90;;;;;;5033174;28;19931;-79
2024/02/04 01:49:35;;;;;;;;;;;8.30;99.90;;;;;;5032780;28;19920;-80
2024/02/04 01:52:01;;;;;;;;;;;8.30;99.90;;;;;;5033494;28;19920;-80
2024/02/04 01:54:27;;;;;;;;;;;8.30;99.90;;;;;;5002725;28;19917;-80
2024/02/04 01:56:52;;;;;;;;;;;8.30;99.90;;;;;;5030801;28;19967;-80
2024/02/04 01:59:19;;;;;;;;;;;8.30;99.90;;;;;;5041908;28;19920;-80
2024/02/04 02:01:45;;;;;;;;;;;8.30;99.90;;;;;;5050057;28;20292;-77
2024/02/04 02:04:10;;;;;;;;;;;8.30;99.90;;;;;;5014641;28;19971;-77
2024/02/04 02:06:41;;;;;;;;;;;8.30;99.90;;;;;;5012535;28;20336;-77
2024/02/04 02:09:10;;;;;;;;;;;8.20;99.90;;;;;;5016840;28;20360;-77
2024/02/04 02:11:37;;;;;;;;;;;8.20;99.90;;;;;;5032451;28;20319;-77
2024/02/04 02:14:07;;;;;;;;;;;8.20;99.90;;;;;;5048506;28;20017;-78
2024/02/04 02:16:35;;;;;;;;;;;8.20;99.90;;;;;;5047512;28;19966;-77
2024/02/04 02:19:24;;;;;;;;;;;8.20;99.90;;;;;;5025567;28;19913;-77
2024/02/04 02:21:52;;;;;;;;;;;8.30;99.90;;;;;;5018404;28;19913;-78
2024/02/04 02:24:26;;;;;;;;;;;8.20;99.90;;;;;;5016762;28;20698;-77
2024/02/04 02:26:53;;;;;;;;;;;8.20;99.90;;;;;;5046052;28;19921;-75
2024/02/04 02:29:21;;;;;;;;;;;8.30;99.90;;;;;;5037014;28;19925;-76
2024/02/04 02:31:49;;;;;;;;;;;8.30;99.90;;;;;;5019062;28;20313;-77
2024/02/04 02:34:15;;;;;;;;;;;8.30;99.90;;;;;;5032401;28;19928;-80
2024/02/04 02:36:45;;;;;;;;;;;8.30;99.90;;;;;;5033556;28;19917;-80
2024/02/04 02:39:17;;;;;;;;;;;8.30;99.90;;;;;;5053028;28;19923;-80
2024/02/04 02:41:43;;;;;;;;;;;8.30;99.90;;;;;;5011036;28;20357;-80
2024/02/04 02:44:09;;;;;;;;;;;8.30;99.90;;;;;;5004910;28;20533;-79
2024/02/04 02:46:35;;;;;;;;;;;8.40;99.90;;;;;;5020063;28;19928;-79
2024/02/04 02:49:01;;;;;;;;;;;8.40;99.90;;;;;;5003440;28;19920;-80
2024/02/04 02:51:29;;;;;;;;;;;8.40;99.90;;;;;;5006084;28;19913;-79
2024/02/04 02:53:55;;;;;;;;;;;8.60;99.90;;;;;;5019020;28;19932;-79
2024/02/04 02:56:20;;;;;;;;;;;8.60;99.90;;;;;;5003364;28;19921;-79
2024/02/04 02:58:46;;;;;;;;;;;8.50;99.90;;;;;;5016914;28;19924;-80
2024/02/04 03:01:12;;;;;;;;;;;8.50;99.90;;;;;;5055724;28;19921;-79
2024/02/04 03:03:37;;;;;;;;;;;8.50;99.90;;;;;;5048780;28;19971;-79
2024/02/04 03:06:03;;;;;;;;;;;8.50;99.90;;;;;;5039677;28;19925;-80
2024/02/04 03:08:29;;;;;;;;;;;8.60;99.90;;;;;;5016028;28;19917;-79
2024/02/04 03:10:54;;;;;;;;;;;8.60;99.90;;;;;;4999210;28;20326;-80
2024/02/04 03:13:20;;;;;;;;;;;8.60;99.90;;;;;;5026024;28;19913;-80
2024/02/04 03:15:45;;;;;;;;;;;8.60;99.90;;;;;;5036074;28;20292;-80
2024/02/04 03:18:11;;;;;;;;;;;8.60;99.90;;;;;;5034848;28;19917;-79
2024/02/04 03:20:38;;;;;;;;;;;8.60;99.90;;;;;;5017776;28;20625;-80
2024/02/04 03:23:06;;;;;;;;;;;8.60;99.90;;;;;;5002716;28;19913;-80
2024/02/04 03:25:32;;;;;;;;;;;8.60;99.90;;;;;;5002182;28;19924;-77
2024/02/04 03:27:57;;;;;;;;;;;8.70;99.90;;;;;;5031380;28;19918;-77
2024/02/04 03:30:23;;;;;;;;;;;8.70;99.90;;;;;;5033734;28;20012;-77
2024/02/04 03:32:48;;;;;;;;;;;8.70;99.90;;;;;;5019022;28;19928;-77
2024/02/04 03:35:14;;;;;;;;;;;8.70;99.90;;;;;;5018661;28;19913;-77
2024/02/04 03:37:40;;;;;;;;;;;8.70;99.90;;;;;;5036192;28;20247;-77
2024/02/04 03:40:06;;;;;;;;;;;8.70;99.90;;;;;;5034125;28;20004;-77
2024/02/04 03:42:31;;;;;;;;;;;8.70;99.90;;;;;;5018723;28;19921;-77
2024/02/04 03:44:57;;;;;;;;;;;8.70;99.90;;;;;;5018114;28;20253;-77
2024/02/04 03:47:23;;;;;;;;;;;8.70;99.90;;;;;;5035682;28;19928;-77
2024/02/04 03:49:48;;;;;;;;;;;8.80;99.90;;;;;;5035712;28;19920;-77
2024/02/04 03:52:14;;;;;;;;;;;8.80;99.90;;;;;;5055044;28;20313;-77
2024/02/04 03:54:40;;;;;;;;;;;8.80;99.90;;;;;;5047258;28;19913;-77
2024/02/04 03:57:05;;;;;;;;;;;8.80;99.90;;;;;;5060588;28;19944;-78
2024/02/04 03:59:31;;;;;;;;;;;8.80;99.90;;;;;;5018518;28;19917;-77
2024/02/04 04:01:57;;;;;;;;;;;8.80;99.90;;;;;;5054834;28;19952;-77
2024/02/04 04:04:23;;;;;;;;;;;8.80;99.90;;;;;;5045518;28;19917;-78
2024/02/04 04:06:49;;;;;;;;;;;8.80;99.90;;;;;;5034354;28;19975;-78
2024/02/04 04:09:14;;;;;;;;;;;8.80;99.90;;;;;;5001049;28;19995;-78
2024/02/04 04:11:41;;;;;;;;;;;8.80;99.90;;;;;;5000772;28;20629;-78
2024/02/04 04:14:07;;;;;;;;;;;8.80;99.90;;;;;;5033557;28;19947;-77
2024/02/04 04:16:33;;;;;;;;;;;8.80;99.90;;;;;;5017662;28;20000;-78
2024/02/04 04:18:58;;;;;;;;;;;8.80;99.90;;;;;;5027970;28;19913;-78
2024/02/04 04:21:24;;;;;;;;;;;8.80;99.90;;;;;;5033355;28;19917;-77
2024/02/04 04:23:50;;;;;;;;;;;8.80;99.90;;;;;;5030723;28;19917;-78
2024/02/04 04:26:15;;;;;;;;;;;8.80;99.90;;;;;;5031434;28;20401;-77
2024/02/04 04:28:41;;;;;;;;;;;8.80;99.90;;;;;;5033843;28;19921;-78
2024/02/04 04:31:06;;;;;;;;;;;8.80;99.90;;;;;;5017083;28;19917;-77
2024/02/04 04:33:32;;;;;;;;;;;8.90;99.90;;;;;;5039370;28;20002;-78
2024/02/04 04:35:58;;;;;;;;;;;8.90;99.90;;;;;;5054071;28;19956;-77
2024/02/04 04:38:26;;;;;;;;;;;8.90;99.90;;;;;;5039803;28;19913;-77
2024/02/04 04:40:55;;;;;;;;;;;8.80;99.90;;;;;;5018018;28;19928;-77
2024/02/04 04:43:20;;;;;;;;;;;8.90;99.90;;;;;;5028734;28;19921;-78
2024/02/04 04:45:48;;;;;;;;;;;8.90;99.90;;;;;;5021857;28;19932;-78
2024/02/04 04:48:14;;;;;;;;;;;8.90;99.90;;;;;;5034528;28;19913;-78
2024/02/04 04:50:40;;;;;;;;;;;8.90;99.90;;;;;;5033982;28;20004;-77
2024/02/04 04:53:05;;;;;;;;;;;8.90;99.90;;;;;;5033797;28;19913;-77
2024/02/04 04:55:31;;;;;;;;;;;8.90;99.90;;;;;;5033987;28;19967;-79
2024/02/04 04:57:57;;;;;;;;;;;8.90;99.90;;;;;;5034582;28;19953;-80
2024/02/04 05:00:22;;;;;;;;;;;8.90;99.90;;;;;;5001098;28;19920;-80
2024/02/04 05:02:48;;;;;;;;;;;8.90;99.90;;;;;;5002000;28;19921;-80
2024/02/04 05:05:14;;;;;;;;;;;8.90;99.90;;;;;;5001249;28;20324;-79
2024/02/04 05:07:39;;;;;;;;;;;8.90;99.90;;;;;;5033801;28;19978;-80
2024/02/04 05:10:07;;;;;;;;;;;8.90;99.90;;;;;;5002074;28;19913;-80
2024/02/04 05:12:32;;;;;;;;;;;8.90;99.90;;;;;;5018392;28;20342;-80
2024/02/04 05:14:58;;;;;;;;;;;8.90;99.90;;;;;;5018283;28;19974;-80
2024/02/04 05:17:24;;;;;;;;;;;8.80;99.90;;;;;;4996429;28;19924;-80
2024/02/04 05:19:52;;;;;;;;;;;8.80;99.90;;;;;;5014821;28;19913;-80
2024/02/04 05:22:17;;;;;;;;;;;8.80;99.90;;;;;;5039091;28;19918;-80
2024/02/04 05:24:43;;;;;;;;;;;8.80;99.90;;;;;;5034602;28;19943;-80
2024/02/04 05:27:09;;;;;;;;;;;8.70;99.90;;;;;;5018655;28;20340;-80
2024/02/04 05:29:34;;;;;;;;;;;8.70;99.90;;;;;;5035096;28;19929;-80
2024/02/04 05:32:00;;;;;;;;;;;8.70;99.90;;;;;;5034659;28;19917;-80
2024/02/04 05:34:25;;;;;;;;;;;8.70;99.90;;;;;;5033695;28;20448;-80
2024/02/04 05:36:51;;;;;;;;;;;8.70;99.90;;;;;;5017463;28;19987;-80
2024/02/04 05:39:17;;;;;;;;;;;8.60;99.90;;;;;;5050896;28;19928;-80
2024/02/04 05:41:42;;;;;;;;;;;8.60;99.90;;;;;;5034733;28;19913;-80
2024/02/04 05:44:09;;;;;;;;;;;8.60;99.90;;;;;;5054001;28;19917;-80
2024/02/04 05:46:35;;;;;;;;;;;8.60;99.90;;;;;;5041609;28;19924;-80
2024/02/04 05:49:00;;;;;;;;;;;8.50;99.90;;;;;;5035981;28;19971;-80
2024/02/04 05:51:26;;;;;;;;;;;8.50;99.90;;;;;;5034757;28;19972;-80
2024/02/04 05:53:52;;;;;;;;;;;8.50;99.90;;;;;;5020703;28;20025;-79
2024/02/04 05:56:18;;;;;;;;;;;8.50;99.90;;;;;;5026822;28;19913;-80
2024/02/04 05:58:46;;;;;;;;;;;8.50;99.90;;;;;;5027853;28;20409;-79
2024/02/04 06:01:11;;;;;;;;;;;8.40;99.90;;;;;;5020655;28;19967;-80
2024/02/04 06:03:37;;;;;;;;;;;8.40;99.90;;;;;;5036490;28;19913;-80
2024/02/04 06:06:03;;;;;;;;;;;8.40;99.90;;;;;;5036403;28;20281;-80
2024/02/04 06:08:28;;;;;;;;;;;8.40;99.90;;;;;;5020550;28;20304;-80
2024/02/04 06:10:54;;;;;;;;;;;8.40;99.90;;;;;;5017141;28;19949;-80
2024/02/04 06:13:19;;;;;;;;;;;8.40;99.90;;;;;;5034645;28;19917;-80
2024/02/04 06:15:45;;;;;;;;;;;8.40;99.90;;;;;;5039176;28;19963;-81
2024/02/04 06:18:11;;;;;;;;;;;8.40;99.90;;;;;;5037091;28;19917;-81
2024/02/04 06:20:36;;;;;;;;;;;8.30;99.90;;;;;;5012004;28;19945;-80
2024/02/04 06:23:02;;;;;;;;;;;8.40;99.90;;;;;;5033787;28;19922;-81
2024/02/04 06:25:29;;;;;;;;;;;8.40;99.90;;;;;;5072025;28;19958;-80
2024/02/04 06:27:55;;;;;;;;;;;8.40;99.90;;;;;;5056072;28;20003;-80
2024/02/04 06:30:21;;;;;;;;;;;8.40;99.90;;;;;;5056174;28;20019;-80
2024/02/04 06:32:50;;;;;;;;;;;8.50;99.90;;;;;;5041472;28;19913;-80
2024/02/04 06:35:16;;;;;;;;;;;8.50;99.90;;;;;;5020137;28;20012;-80
2024/02/04 06:37:42;;;;;;;;;;;8.50;99.90;;;;;;5003475;28;19988;-80
2024/02/04 06:40:08;;;;;;;;;;;8.40;99.90;;;;;;5036475;28;19921;-80
2024/02/04 06:42:34;;;;;;;;;;;8.50;99.90;;;;;;5035951;28;20000;-80
2024/02/04 06:44:59;;;;;;;;;;;8.50;99.90;;;;;;5027382;28;19971;-80
2024/02/04 06:47:25;;;;;;;;;;;8.50;99.90;;;;;;5025366;28;20002;-80
2024/02/04 06:49:51;;;;;;;;;;;8.50;99.90;;;;;;5054766;28;20347;-80
2024/02/04 06:52:16;;;;;;;;;;;8.50;99.90;;;;;;5032257;28;19928;-80
2024/02/04 06:54:42;;;;;;;;;;;8.50;99.90;;;;;;5046493;28;19922;-79
2024/02/04 06:57:08;;;;;;;;;;;8.50;99.90;;;;;;5003996;28;20054;-79
2024/02/04 06:59:33;;;;;;;;;;;8.50;99.90;;;;;;5050970;28;19920;-79
2024/02/04 07:01:59;;;;;;;;;;;8.50;99.90;;;;;;5035261;28;19924;-79
2024/02/04 07:04:25;;;;;;;;;;;8.50;99.90;;;;;;5020347;28;20367;-80
2024/02/04 07:06:51;;;;;;;;;;;8.50;99.90;;;;;;5035274;28;19920;-80
2024/02/04 07:09:17;;;;;;;;;;;8.50;99.90;;;;;;5035302;28;20380;-80
2024/02/04 07:11:43;;;;;;;;;;;8.50;99.90;;;;;;5017825;28;19975;-80
2024/02/04 07:14:08;;;;;;;;;;;8.50;99.90;;;;;;5021319;28;19933;-79
2024/02/04 07:16:34;;;;;;;;;;;8.50;99.90;;;;;;5054453;28;19916;-79
2024/02/04 07:19:00;;;;;;;;;;;8.60;99.90;;;;;;5024158;28;20239;-80
2024/02/04 07:21:25;;;;;;;;;;;8.50;99.90;;;;;;5019450;28;19967;-79
2024/02/04 07:23:51;;;;;;;;;;;8.50;99.90;;;;;;5038381;28;19983;-80
2024/02/04 07:26:17;;;;;;;;;;;8.50;99.90;;;;;;5018822;28;19948;-79
2024/02/04 07:28:44;;;;;;;;;;;8.50;99.90;;;;;;5019164;28;19928;-80
2024/02/04 07:31:10;;;;;;;;;;;8.50;99.90;;;;;;5036135;28;19917;-80
2024/02/04 07:33:36;;;;;;;;;;;8.50;99.90;;;;;;5019333;28;20393;-79
2024/02/04 07:36:03;;;;;;;;;;;8.50;99.90;;;;;;5020739;28;19913;-80
2024/02/04 07:38:28;;;;;;;;;;;8.50;99.90;;;;;;5050153;28;19923;-79
2024/02/04 07:40:56;;;;;;;;;;;8.50;99.90;;;;;;5035236;28;19971;-80
2024/02/04 07:43:22;;;;;;;;;;;8.50;99.90;;;;;;5035630;28;19917;-80
2024/02/04 07:45:47;;;;;;;;;;;8.50;99.90;;;;;;5035837;28;20288;-79
2024/02/04 07:48:13;;;;;;;;;;;8.50;99.90;;;;;;5019253;28;19924;-79
2024/02/04 07:50:39;;;;;;;;;;;8.50;99.90;;;;;;5027158;28;19916;-79
2024/02/04 07:53:04;;;;;;;;;;;8.50;99.90;;;;;;5055359;28;20003;-79
2024/02/04 07:55:30;;;;;;;;;;;8.50;99.90;;;;;;5041433;28;19956;-80
2024/02/04 07:57:56;;;;;;;;;;;8.50;99.90;;;;;;5038421;28;19944;-80
2024/02/04 08:00:21;;;;;;;;;;;8.50;99.90;;;;;;5031165;28;20519;-80
2024/02/04 08:02:47;;;;;;;;;;;8.50;99.90;;;;;;5014753;28;20381;-80
2024/02/04 08:05:13;;;;;;;;;;;8.50;99.90;;;;;;5032109;28;19917;-80
2024/02/04 08:07:40;;;;;;;;;;;8.60;99.90;;;;;;5037097;28;20306;-80
2024/02/04 08:10:07;;;;;;;;;;;8.50;99.90;;;;;;5043824;28;19916;-79
2024/02/04 08:12:32;;;;;;;;;;;8.60;99.90;;;;;;5054427;28;19975;-79
2024/02/04 08:14:58;;;;;;;;;;;8.50;99.90;;;;;;5028481;28;19921;-79
2024/02/04 08:17:24;;;;;;;;;;;8.60;99.90;;;;;;5015736;28;19926;-80
2024/02/04 08:19:50;;;;;;;;;;;8.60;99.90;;;;;;5036610;28;20629;-80
2024/02/04 08:22:17;;;;;;;;;;;8.60;99.90;;;;;;5044767;28;19913;-80
2024/02/04 08:24:43;;;;;;;;;;;8.70;99.90;;;;;;5034890;28;19928;-80
2024/02/04 08:27:08;;;;;;;;;;;8.70;99.90;;;;;;5018514;28;19936;-79
2024/02/04 08:29:34;;;;;;;;;;;8.70;99.90;;;;;;5017977;28;19932;-79
2024/02/04 08:32:00;;;;;;;;;;;8.70;99.90;;;;;;5034078;28;19924;-80
2024/02/04 08:34:26;;;;;;;;;;;8.70;99.90;;;;;;5046433;28;19916;-79
2024/02/04 08:36:52;;;;;;;;;;;8.70;99.90;;;;;;5038018;28;20025;-81
2024/02/04 08:39:17;;;;;;;;;;;8.80;99.90;;;;;;5053530;28;19913;-80
2024/02/04 08:41:44;;;;;;;;;;;8.80;99.90;;;;;;5041366;28;19925;-80
2024/02/04 08:44:10;;;;;;;;;;;8.80;99.90;;;;;;5019319;28;19916;-80
2024/02/04 08:46:36;;;;;;;;;;;8.90;99.90;;;;;;5000894;28;19986;-79
2024/02/04 08:49:01;;;;;;;;;;;8.90;99.90;;;;;;5034526;28;19917;-80
2024/02/04 08:51:27;;;;;;;;;;;8.90;99.90;;;;;;5034291;28;19971;-79
2024/02/04 08:53:54;;;;;;;;;;;8.90;99.90;;;;;;5001834;28;19967;-79
2024/02/04 08:56:19;;;;;;;;;;;9.00;99.90;;;;;;5012992;28;20266;-79
2024/02/04 08:58:45;;;;;;;;;;;9.00;99.90;;;;;;5033980;28;19914;-80
2024/02/04 09:01:11;;;;;;;;;;;9.00;99.90;;;;;;5047554;28;19917;-78
2024/02/04 09:03:36;;;;;;;;;;;9.00;99.90;;;;;;5034490;28;19913;-80
2024/02/04 09:06:02;;;;;;;;;;;9.00;99.90;;;;;;5003306;28;19921;-79
2024/02/04 09:08:28;;;;;;;;;;;9.30;99.90;;;;;;5012255;28;19939;-80
2024/02/04 09:10:53;;;;;;;;;;;9.20;99.90;;;;;;5031421;28;19917;-79
2024/02/04 09:13:19;;;;;;;;;;;9.10;99.90;;;;;;5017004;28;20317;-79
2024/02/04 09:15:45;;;;;;;;;;;9.20;99.90;;;;;;4991868;28;19928;-80
2024/02/04 09:18:13;;;;;;;;;;;9.10;99.90;;;;;;5013781;28;20012;-81
2024/02/04 09:20:38;;;;;;;;;;;9.10;99.90;;;;;;5020297;28;19917;-78
2024/02/04 09:23:04;;;;;;;;;;;9.10;99.90;;;;;;5035046;28;19925;-80
2024/02/04 09:25:30;;;;;;;;;;;9.10;99.90;;;;;;5036892;28;20013;-79
2024/02/04 09:27:56;;;;;;;;;;;9.10;99.90;;;;;;5037355;28;20011;-79
2024/02/04 09:30:21;;;;;;;;;;;9.10;99.90;;;;;;5036976;28;19979;-79
2024/02/04 09:32:47;;;;;;;;;;;9.10;99.90;;;;;;5020497;28;20448;-79
2024/02/04 09:35:16;;;;;;;;;;;9.10;99.90;;;;;;5004030;28;19966;-79
2024/02/04 09:37:42;;;;;;;;;;;9.10;99.90;;;;;;5019691;28;19947;-79
2024/02/04 09:40:08;;;;;;;;;;;9.10;99.90;;;;;;5050483;28;19917;-80
2024/02/04 09:42:33;;;;;;;;;;;9.10;99.90;;;;;;5020494;28;19939;-80
2024/02/04 09:44:59;;;;;;;;;;;9.10;99.90;;;;;;5023015;28;19917;-80
2024/02/04 09:47:28;;;;;;;;;;;9.10;99.90;;;;;;5042128;28;20333;-80
2024/02/04 09:49:56;;;;;;;;;;;9.10;99.90;;;;;;5030755;28;20007;-80
2024/02/04 09:52:28;;;;;;;;;;;9.10;99.90;;;;;;5050002;28;19923;-80
2024/02/04 09:54:59;;;;;;;;;;;9.10;99.90;;;;;;5020869;28;20011;-79
2024/02/04 09:57:25;;;;;;;;;;;9.10;99.90;;;;;;5020706;28;19920;-79
2024/02/04 09:59:51;;;;;;;;;;;9.00;99.90;;;;;;5008914;28;19917;-79
2024/02/04 10:02:17;;;;;;;;;;;9.00;99.90;;;;;;5009902;28;19948;-80
2024/02/04 10:04:42;;;;;;;;;;;9.00;99.90;;;;;;5024392;28;19925;-81
2024/02/04 10:07:13;;;;;;;;;;;9.00;99.90;;;;;;5016216;28;19921;-79
2024/02/04 10:09:42;;;;;;;;;;;9.00;99.90;;;;;;5024333;28;19916;-80
2024/02/04 10:12:09;;;;;;;;;;;8.90;99.90;;;;;;5048503;28;19917;-76
2024/02/04 10:14:39;;;;;;;;;;;9.00;99.90;;;;;;5001562;28;19917;-79
2024/02/04 10:17:04;;;;;;;;;;;8.90;99.90;;;;;;5017160;28;19928;-79
2024/02/04 10:19:30;;;;;;;;;;;9.00;99.90;;;;;;5020112;28;19927;-79
2024/02/04 10:22:00;;;;;;;;;;;8.90;99.90;;;;;;5037129;28;19916;-79
2024/02/04 10:24:25;;;;;;;;;;;9.00;99.90;;;;;;5003738;28;19921;-79
2024/02/04 10:26:51;;;;;;;;;;;8.90;99.90;;;;;;5020202;28;19975;-79
2024/02/04 10:29:18;;;;;;;;;;;9.00;99.90;;;;;;5022868;28;19929;-80
2024/02/04 10:31:43;;;;;;;;;;;9.00;99.90;;;;;;5040668;28;19917;-79
2024/02/04 10:34:09;;;;;;;;;;;9.00;99.90;;;;;;5036568;28;19917;-79
2024/02/04 10:36:35;;;;;;;;;;;9.00;99.90;;;;;;5051737;28;19927;-78
2024/02/04 10:39:00;;;;;;;;;;;9.00;99.90;;;;;;5042350;28;20012;-80
2024/02/04 10:41:26;;;;;;;;;;;8.90;99.90;;;;;;5015316;28;20310;-80
2024/02/04 10:43:55;;;;;;;;;;;8.90;99.90;;;;;;5015610;28;19921;-76
2024/02/04 10:46:30;;;;;;;;;;;8.90;99.90;;;;;;4998710;28;19929;-74
2024/02/04 10:48:56;;;;;;;;;;;8.90;99.90;;;;;;5017738;28;19917;-75
2024/02/04 10:51:26;;;;;;;;;;;8.90;99.90;;;;;;5024397;28;19917;-76
2024/02/04 10:54:00;;;;;;;;;;;8.90;99.90;;;;;;5043624;28;20253;-76
2024/02/04 10:56:52;;;;;;;;;;;8.90;99.90;;;;;;5019627;28;19928;-76
2024/02/04 10:59:29;;;;;;;;;;;8.90;99.90;;;;;;5032887;28;20012;-76
2024/02/04 11:02:02;;;;;;;;;;;8.90;99.90;;;;;;5038699;28;19929;-76
2024/02/04 11:04:29;;;;;;;;;;;9.00;99.90;;;;;;5055904;28;19912;-76
2024/02/04 11:07:04;;;;;;;;;;;9.10;99.90;;;;;;5039945;28;20249;-76
2024/02/04 11:09:30;;;;;;;;;;;9.20;99.90;;;;;;5034226;28;19923;-76
2024/02/04 11:11:56;;;;;;;;;;;9.10;99.90;;;;;;5036751;28;19917;-76
2024/02/04 11:14:22;;;;;;;;;;;9.20;99.90;;;;;;5017322;28;20304;-77
2024/02/04 11:16:56;;;;;;;;;;;9.20;99.90;;;;;;5047019;28;19925;-76
2024/02/04 11:19:45;;;;;;;;;;;9.20;99.90;;;;;;5043782;28;19917;-77
2024/02/04 11:22:20;;;;;;;;;;;9.20;99.90;;;;;;5035777;28;19956;-77
2024/02/04 11:24:46;;;;;;;;;;;9.10;99.90;;;;;;5036917;28;19917;-77
2024/02/04 11:27:12;;;;;;;;;;;9.20;99.90;;;;;;5049847;28;20047;-77
2024/02/04 11:29:38;;;;;;;;;;;9.20;99.90;;;;;;5029387;28;19943;-76
2024/02/04 11:32:07;;;;;;;;;;;9.20;99.90;;;;;;5017160;28;19917;-77
2024/02/04 11:34:33;;;;;;;;;;;9.10;99.90;;;;;;5045750;28;19936;-77
2024/02/04 11:37:00;;;;;;;;;;;9.10;99.90;;;;;;5031045;28;19917;-75
2024/02/04 11:39:26;;;;;;;;;;;9.10;99.90;;;;;;5028734;28;20341;-76
2024/02/04 11:41:51;;;;;;;;;;;9.10;99.90;;;;;;5029302;28;19918;-76
2024/02/04 11:44:24;;;;;;;;;;;9.10;99.90;;;;;;5039204;28;20337;-76
2024/02/04 11:46:50;;;;;;;;;;;9.10;99.90;;;;;;5052032;28;20256;-76
2024/02/04 11:49:26;;;;;;;;;;;9.10;99.90;;;;;;5037840;28;19968;-75
2024/02/04 11:51:52;;;;;;;;;;;9.20;99.90;;;;;;5015406;28;20913;-76
2024/02/04 11:54:20;;;;;;;;;;;9.30;99.90;;;;;;5032722;28;20008;-75
2024/02/04 11:56:53;;;;;;;;;;;9.30;99.90;;;;;;5001570;28;19927;-76
2024/02/04 11:59:23;;;;;;;;;;;9.30;99.90;;;;;;5017880;28;19913;-79
2024/02/04 12:01:55;;;;;;;;;;;9.30;99.90;;;;;;5004069;28;19917;-79
2024/02/04 12:04:21;;;;;;;;;;;9.30;99.90;;;;;;4996592;28;19928;-79
2024/02/04 12:06:47;;;;;;;;;;;9.20;99.90;;;;;;4996869;28;19925;-79
2024/02/04 12:09:27;;;;;;;;;;;9.20;99.90;;;;;;5023512;28;19929;-75
2024/02/04 12:11:53;;;;;;;;;;;9.20;99.90;;;;;;5000743;28;19956;-75
2024/02/04 12:14:19;;;;;;;;;;;9.20;99.90;;;;;;5017486;28;19952;-75
2024/02/04 12:16:45;;;;;;;;;;;9.30;99.90;;;;;;5029513;28;19932;-75
2024/02/04 12:19:11;;;;;;;;;;;9.20;99.90;;;;;;5017615;28;19917;-75
2024/02/04 12:21:37;;;;;;;;;;;9.30;99.90;;;;;;5049691;28;20238;-76
2024/02/04 12:24:06;;;;;;;;;;;9.20;99.90;;;;;;5035203;28;20239;-75
2024/02/04 12:26:32;;;;;;;;;;;9.20;99.90;;;;;;5019648;28;19917;-77
2024/02/04 12:29:01;;;;;;;;;;;9.30;99.90;;;;;;5018796;28;19921;-76
2024/02/04 12:31:32;;;;;;;;;;;9.20;99.90;;;;;;5033790;28;19924;-75
2024/02/04 12:34:00;;;;;;;;;;;9.20;99.90;;;;;;5012571;28;19925;-75
2024/02/04 12:36:31;;;;;;;;;;;9.20;99.90;;;;;;5024702;28;19944;-76
2024/02/04 12:38:58;;;;;;;;;;;9.20;99.90;;;;;;5027251;28;19964;-76
2024/02/04 12:41:25;;;;;;;;;;;9.30;99.90;;;;;;5014078;28;20338;-76
2024/02/04 12:43:57;;;;;;;;;;;9.30;99.90;;;;;;5014255;28;19957;-77
2024/02/04 12:46:25;;;;;;;;;;;9.30;99.90;;;;;;4998000;28;19933;-76
2024/02/04 12:48:54;;;;;;;;;;;9.20;99.90;;;;;;5014892;28;20028;-76
2024/02/04 12:51:31;;;;;;;;;;;9.30;99.90;;;;;;5015299;28;20322;-76
2024/02/04 12:54:07;;;;;;;;;;;9.30;99.90;;;;;;5018093;28;19924;-76
2024/02/04 12:56:41;;;;;;;;;;;9.30;99.90;;;;;;5015160;28;19939;-76
2024/02/04 12:59:22;;;;;;;;;;;9.30;99.90;;;;;;5015574;28;19983;-77
2024/02/04 13:01:51;;;;;;;;;;;9.30;99.90;;;;;;5007262;28;19929;-75
2024/02/04 13:04:22;;;;;;;;;;;9.40;99.90;;;;;;5032850;28;19955;-75
2024/02/04 13:06:48;;;;;;;;;;;9.30;99.90;;;;;;5015936;28;20019;-76
2024/02/04 13:09:15;;;;;;;;;;;9.30;99.90;;;;;;5014432;28;19914;-76
2024/02/04 13:11:46;;;;;;;;;;;9.30;99.90;;;;;;5021736;28;20258;-76
2024/02/04 13:14:14;;;;;;;;;;;9.30;99.90;;;;;;5037309;28;19917;-75
2024/02/04 13:16:40;;;;;;;;;;;9.30;99.90;;;;;;5034106;28;20214;-76
2024/02/04 13:19:09;;;;;;;;;;;9.20;99.90;;;;;;5032833;28;20002;-76
2024/02/04 13:21:35;;;;;;;;;;;9.30;99.90;;;;;;5033862;28;20058;-75
2024/02/04 13:24:01;;;;;;;;;;;9.20;99.90;;;;;;5036815;28;19918;-76
2024/02/04 13:26:32;;;;;;;;;;;9.20;99.90;;;;;;5036434;28;19993;-76
2024/02/04 13:29:02;;;;;;;;;;;9.30;99.90;;;;;;5044444;28;19929;-76
2024/02/04 13:31:31;;;;;;;;;;;9.20;99.90;;;;;;5029232;28;19924;-75
2024/02/04 13:34:03;;;;;;;;;;;9.30;99.90;;;;;;5031194;28;20257;-76
2024/02/04 13:36:29;;;;;;;;;;;9.20;99.90;;;;;;5021856;28;19956;-76
2024/02/04 13:38:55;;;;;;;;;;;9.20;99.90;;;;;;5033003;28;19960;-75
2024/02/04 13:41:23;;;;;;;;;;;9.20;99.90;;;;;;5032171;28;19917;-75
2024/02/04 13:43:50;;;;;;;;;;;9.10;99.90;;;;;;5048344;28;19914;-75
2024/02/04 13:46:16;;;;;;;;;;;9.20;99.90;;;;;;5032993;28;19913;-75
2024/02/04 13:48:44;;;;;;;;;;;9.20;99.90;;;;;;5032480;28;19913;-76
2024/02/04 13:51:14;;;;;;;;;;;9.30;99.90;;;;;;5033084;28;20253;-76
2024/02/04 13:53:40;;;;;;;;;;;9.20;99.90;;;;;;5033626;28;19931;-75
2024/02/04 13:56:30;;;;;;;;;;;9.20;99.90;;;;;;5052280;28;20241;-76
2024/02/04 13:59:06;;;;;;;;;;;9.10;99.90;;;;;;5033168;28;19953;-76
2024/02/04 14:01:32;;;;;;;;;;;9.20;99.90;;;;;;5032795;28;19928;-76
2024/02/04 14:03:58;;;;;;;;;;;9.20;99.90;;;;;;5031750;28;19913;-76
2024/02/04 14:06:26;;;;;;;;;;;9.20;99.90;;;;;;5025891;28;19943;-76
2024/02/04 14:08:52;;;;;;;;;;;9.20;99.90;;;;;;5043392;28;19917;-76
2024/02/04 14:11:18;;;;;;;;;;;9.20;99.90;;;;;;5020009;28;19920;-75
2024/02/04 14:13:44;;;;;;;;;;;9.20;99.90;;;;;;5018650;28;19971;-75
2024/02/04 14:16:23;;;;;;;;;;;;;;;;;;;;;
2024/02/04 14:18:51;;;;;;;;;;;9.20;99.90;;;;;;5024539;28;19917;-75
2024/02/04 14:21:17;;;;;;;;;;;9.20;99.90;;;;;;5033245;28;19989;-75
2024/02/04 14:23:43;;;;;;;;;;;9.20;99.90;;;;;;5032967;28;19940;-75
2024/02/04 14:26:18;;;;;;;;;;;9.20;99.90;;;;;;5026848;28;20402;-79
2024/02/04 14:28:44;;;;;;;;;;;9.20;99.90;;;;;;5052481;28;19975;-79
2024/02/04 14:31:09;;;;;;;;;;;9.20;99.90;;;;;;5019908;28;19920;-79